Time;durP1;ratioP1;P1;durP2;ratioP2;P2;SDS_P1;SDS_P2;PMS_P1;PMS_P2;Temp;Humidity;BMP_temperature;BMP_pressure;BME280_temperature;BME280_humidity;BME280_pressure;Samples;Min_cycle;Max_cycle;Signal;HPM_P1;HPM_P2
2022/09/03 00:01:21;;;;;;;2.75;1.10;;;17.00;78.40;;;;;;5035859;28;20140;-78
2022/09/03 00:03:54;;;;;;;3.03;0.80;;;17.00;78.20;;;;;;5043090;28;20025;-76
2022/09/03 00:06:45;;;;;;;2.22;0.90;;;17.00;78.70;;;;;;5045598;28;20041;-78
2022/09/03 00:09:14;;;;;;;1.35;0.90;;;16.90;78.50;;;;;;5024843;28;20056;-77
2022/09/03 00:12:18;;;;;;;1.23;0.80;;;16.90;78.70;;;;;;5046190;28;20086;-77
2022/09/03 00:14:57;;;;;;;1.60;0.80;;;16.90;79.10;;;;;;5024583;28;20045;-77
2022/09/03 00:17:29;;;;;;;1.67;1.10;;;16.90;79.20;;;;;;5025569;28;20452;-77
2022/09/03 00:20:12;;;;;;;0.98;0.70;;;16.90;79.30;;;;;;5048946;28;20044;-77
2022/09/03 00:22:45;;;;;;;2.50;0.80;;;16.90;79.40;;;;;;5024292;28;20036;-77
2022/09/03 00:25:18;;;;;;;2.08;0.73;;;16.80;79.30;;;;;;5025623;28;20480;-77
2022/09/03 00:27:49;;;;;;;1.30;0.70;;;16.80;79.70;;;;;;5041002;28;20048;-76
2022/09/03 00:30:16;;;;;;;2.65;0.80;;;16.80;79.70;;;;;;5008769;28;20055;-77
2022/09/03 00:33:08;;;;;;;1.48;0.90;;;16.80;79.90;;;;;;5044497;28;20029;-77
2022/09/03 00:35:52;;;;;;;1.52;0.90;;;16.80;80.10;;;;;;5043458;28;20039;-77
2022/09/03 00:38:21;;;;;;;2.35;0.85;;;16.80;80.10;;;;;;5028817;28;20088;-77
2022/09/03 00:41:15;;;;;;;1.23;0.75;;;16.70;80.00;;;;;;5034320;28;20045;-78
2022/09/03 00:43:45;;;;;;;2.95;0.80;;;16.70;80.50;;;;;;5034942;28;20033;-78
2022/09/03 00:46:22;;;;;;;1.10;0.80;;;16.70;80.60;;;;;;5051848;28;20091;-78
2022/09/03 00:49:19;;;;;;;3.35;0.85;;;16.70;80.70;;;;;;5031828;28;20636;-76
2022/09/03 00:52:43;;;;;;;1.33;0.82;;;16.70;80.90;;;;;;5006147;28;20045;-77
2022/09/03 00:55:37;;;;;;;3.22;0.90;;;16.70;81.20;;;;;;4987590;28;20078;-78
2022/09/03 00:58:24;;;;;;;1.23;0.80;;;16.60;81.20;;;;;;5029232;28;21764;-77
2022/09/03 01:00:51;;;;;;;1.77;0.88;;;16.60;81.20;;;;;;5026969;28;20037;-77
2022/09/03 01:03:42;;;;;;;2.28;0.82;;;16.60;81.30;;;;;;5047902;28;20629;-78
2022/09/03 01:06:15;;;;;;;1.95;0.98;;;16.60;81.70;;;;;;5011816;28;20444;-78
2022/09/03 01:09:11;;;;;;;1.55;1.00;;;16.50;81.60;;;;;;5026870;28;20026;-77
2022/09/03 01:12:04;;;;;;;1.75;1.20;;;16.50;82.00;;;;;;5047289;28;20309;-78
2022/09/03 01:14:49;;;;;;;1.30;0.80;;;16.50;81.80;;;;;;5030021;28;20029;-77
2022/09/03 01:17:44;;;;;;;1.85;0.80;;;16.50;82.10;;;;;;5046916;28;20547;-77
2022/09/03 01:20:37;;;;;;;2.72;0.98;;;16.50;82.50;;;;;;5025131;28;20028;-77
2022/09/03 01:23:11;;;;;;;2.15;0.90;;;16.40;82.40;;;;;;5027558;28;20139;-77
2022/09/03 01:25:57;;;;;;;2.33;1.23;;;16.40;82.50;;;;;;5027726;28;20477;-77
2022/09/03 01:28:32;;;;;;;1.95;0.82;;;16.40;82.50;;;;;;5028625;28;20033;-77
2022/09/03 01:31:17;;;;;;;1.67;1.05;;;16.40;82.90;;;;;;5034052;28;20044;-77
2022/09/03 01:34:02;;;;;;;1.80;0.93;;;16.40;82.70;;;;;;5064324;28;20032;-76
2022/09/03 01:36:46;;;;;;;2.75;0.80;;;16.40;82.70;;;;;;5051516;28;20095;-76
2022/09/03 01:39:51;;;;;;;1.10;0.70;;;16.40;83.10;;;;;;5036260;28;20036;-77
2022/09/03 01:42:40;;;;;;;2.50;0.93;;;16.30;83.20;;;;;;5026191;28;20036;-77
2022/09/03 01:45:12;;;;;;;2.10;0.95;;;16.30;83.40;;;;;;5043567;28;20025;-77
2022/09/03 01:48:03;;;;;;;3.08;1.00;;;16.30;83.40;;;;;;5044181;28;20055;-77
2022/09/03 01:50:41;;;;;;;1.33;1.23;;;16.30;83.80;;;;;;5026762;28;20040;-77
2022/09/03 01:53:25;;;;;;;2.13;1.00;;;16.30;84.10;;;;;;5028199;28;20666;-77
2022/09/03 01:56:27;;;;;;;1.10;0.85;;;16.20;84.20;;;;;;5026313;28;20033;-77
2022/09/03 01:59:20;;;;;;;1.48;0.88;;;16.20;84.50;;;;;;5041554;28;20040;-77
2022/09/03 02:02:23;;;;;;;1.40;1.05;;;16.10;84.70;;;;;;5039851;28;20026;-76
2022/09/03 02:05:07;;;;;;;1.70;1.00;;;16.10;84.80;;;;;;5009996;28;20485;-78
2022/09/03 02:07:50;;;;;;;2.40;1.15;;;16.10;85.10;;;;;;5015618;28;20029;-77
2022/09/03 02:10:20;;;;;;;4.05;0.90;;;16.10;84.90;;;;;;5017386;28;20033;-78
2022/09/03 02:12:50;;;;;;;3.33;1.00;;;16.10;85.50;;;;;;5016608;28;20025;-77
2022/09/03 02:15:20;;;;;;;1.42;0.80;;;16.10;85.30;;;;;;5028518;28;20048;-77
2022/09/03 02:17:48;;;;;;;3.90;1.10;;;16.10;85.50;;;;;;5032286;28;20036;-77
2022/09/03 02:20:19;;;;;;;4.15;1.00;;;16.10;86.00;;;;;;5048088;28;20030;-77
2022/09/03 02:22:46;;;;;;;2.88;1.20;;;16.00;86.20;;;;;;5015508;28;20029;-78
2022/09/03 02:25:13;;;;;;;4.25;1.23;;;16.00;85.90;;;;;;5029240;28;20025;-77
2022/09/03 02:27:39;;;;;;;2.65;1.02;;;16.00;86.10;;;;;;5048380;28;20088;-77
2022/09/03 02:30:06;;;;;;;2.63;1.20;;;16.00;86.40;;;;;;5026471;28;20394;-77
2022/09/03 02:32:32;;;;;;;3.25;1.58;;;15.90;86.30;;;;;;5009499;28;20066;-76
2022/09/03 02:34:57;;;;;;;1.90;1.17;;;15.90;86.30;;;;;;5028172;28;20098;-77
2022/09/03 02:37:24;;;;;;;2.17;1.27;;;15.90;86.60;;;;;;5026871;28;20437;-77
2022/09/03 02:39:53;;;;;;;6.88;1.20;;;15.90;87.10;;;;;;5021167;28;20025;-77
2022/09/03 02:42:19;;;;;;;3.92;1.48;;;15.90;86.90;;;;;;5025265;28;20123;-76
2022/09/03 02:44:52;;;;;;;2.42;1.10;;;15.90;87.50;;;;;;5021871;28;20465;-75
2022/09/03 02:47:19;;;;;;;3.17;1.10;;;15.80;87.30;;;;;;5004902;28;20029;-77
2022/09/03 02:49:47;;;;;;;3.97;1.25;;;15.90;87.40;;;;;;5039152;28;20044;-76
2022/09/03 02:52:14;;;;;;;1.83;1.30;;;15.80;87.10;;;;;;5019176;28;20378;-77
2022/09/03 02:54:40;;;;;;;2.00;1.17;;;15.80;87.60;;;;;;5030255;28;20043;-77
2022/09/03 02:57:13;;;;;;;2.13;1.02;;;15.80;87.80;;;;;;5006147;28;20033;-77
2022/09/03 02:59:40;;;;;;;1.77;1.25;;;15.80;87.90;;;;;;5023529;28;20495;-76
2022/09/03 03:02:06;;;;;;;2.67;1.30;;;15.80;88.00;;;;;;5042867;28;20470;-76
2022/09/03 03:04:32;;;;;;;2.33;1.10;;;15.80;88.30;;;;;;5043981;28;20018;-77
2022/09/03 03:06:58;;;;;;;3.42;1.00;;;15.70;88.20;;;;;;5024710;28;20043;-77
2022/09/03 03:09:24;;;;;;;2.35;0.85;;;15.70;88.50;;;;;;5044664;28;20029;-77
2022/09/03 03:11:50;;;;;;;1.30;0.80;;;15.80;88.70;;;;;;5041880;28;20044;-77
2022/09/03 03:14:17;;;;;;;1.52;1.10;;;15.80;88.70;;;;;;5044331;28;20032;-77
2022/09/03 03:16:43;;;;;;;2.00;1.00;;;15.70;88.70;;;;;;5023384;28;20041;-77
2022/09/03 03:19:09;;;;;;;1.70;0.98;;;15.60;89.00;;;;;;5007486;28;20053;-77
2022/09/03 03:21:35;;;;;;;1.50;0.80;;;15.60;89.00;;;;;;5043067;28;20049;-76
2022/09/03 03:24:01;;;;;;;1.63;0.90;;;15.60;89.00;;;;;;5031776;28;20037;-77
2022/09/03 03:26:28;;;;;;;1.92;1.08;;;15.60;90.00;;;;;;5052955;28;20086;-77
2022/09/03 03:29:03;;;;;;;2.00;1.00;;;15.60;89.30;;;;;;5022535;28;20029;-76
2022/09/03 03:31:29;;;;;;;1.85;0.95;;;15.60;89.50;;;;;;5038756;28;20033;-77
2022/09/03 03:33:58;;;;;;;1.70;1.08;;;15.60;89.60;;;;;;5033810;28;20031;-77
2022/09/03 03:36:25;;;;;;;5.13;1.25;;;15.60;89.80;;;;;;5026538;28;20044;-77
2022/09/03 03:38:57;;;;;;;1.40;0.80;;;15.60;90.00;;;;;;5026608;28;20025;-77
2022/09/03 03:41:26;;;;;;;2.22;1.00;;;15.60;90.00;;;;;;5045846;28;20031;-76
2022/09/03 03:43:56;;;;;;;3.13;1.13;;;15.60;90.00;;;;;;5024711;28;20039;-77
2022/09/03 03:46:23;;;;;;;2.90;1.10;;;15.50;90.10;;;;;;5045728;28;20029;-76
2022/09/03 03:48:50;;;;;;;2.53;1.00;;;15.50;90.00;;;;;;5026099;28;20035;-77
2022/09/03 03:51:16;;;;;;;1.98;1.13;;;15.50;90.30;;;;;;5027107;28;20056;-78
2022/09/03 03:53:42;;;;;;;1.35;0.90;;;15.50;90.20;;;;;;5018857;28;20088;-77
2022/09/03 03:56:11;;;;;;;2.78;0.80;;;15.50;90.40;;;;;;5034811;28;20044;-77
2022/09/03 03:58:42;;;;;;;1.65;1.10;;;15.50;90.30;;;;;;5031980;28;20025;-77
2022/09/03 04:01:14;;;;;;;3.97;1.08;;;15.40;90.40;;;;;;5045111;28;20025;-77
2022/09/03 04:03:41;;;;;;;3.58;1.08;;;15.50;90.50;;;;;;5010499;28;20636;-77
2022/09/03 04:06:08;;;;;;;2.75;1.02;;;15.40;90.60;;;;;;5046721;28;20574;-77
2022/09/03 04:08:36;;;;;;;4.15;1.00;;;15.40;90.60;;;;;;5045853;28;20025;-77
2022/09/03 04:11:03;;;;;;;4.70;1.10;;;15.40;90.70;;;;;;5029933;28;20024;-77
2022/09/03 04:13:34;;;;;;;1.60;1.10;;;15.40;90.60;;;;;;5048369;28;20021;-76
2022/09/03 04:16:05;;;;;;;1.83;1.15;;;15.40;90.80;;;;;;5050296;28;20962;-77
2022/09/03 04:18:35;;;;;;;2.63;1.00;;;15.30;90.80;;;;;;5036260;28;20052;-77
2022/09/03 04:21:03;;;;;;;2.17;0.93;;;15.30;90.90;;;;;;5041194;28;20029;-76
2022/09/03 04:23:34;;;;;;;1.77;1.08;;;15.30;91.10;;;;;;5019900;28;20072;-77
2022/09/03 04:26:00;;;;;;;1.43;0.90;;;15.30;91.00;;;;;;5029186;28;20162;-77
2022/09/03 04:28:26;;;;;;;3.75;1.00;;;15.30;91.00;;;;;;5030736;28;20271;-77
2022/09/03 04:30:53;;;;;;;2.45;1.00;;;15.30;91.10;;;;;;5047074;28;20091;-77
2022/09/03 04:33:19;;;;;;;1.65;0.93;;;15.30;91.10;;;;;;5031386;28;20377;-78
2022/09/03 04:35:45;;;;;;;1.50;0.90;;;15.30;91.10;;;;;;5028142;28;20025;-77
2022/09/03 04:38:12;;;;;;;2.05;1.10;;;15.30;91.30;;;;;;5011333;28;20032;-77
2022/09/03 04:40:38;;;;;;;2.58;1.10;;;15.20;91.40;;;;;;5043628;28;20033;-78
2022/09/03 04:43:03;;;;;;;2.10;1.13;;;15.20;91.40;;;;;;5041530;28;20572;-76
2022/09/03 04:45:29;;;;;;;2.22;1.15;;;15.20;91.30;;;;;;5044305;28;20104;-76
2022/09/03 04:48:02;;;;;;;2.10;1.20;;;15.10;91.60;;;;;;5041447;28;20037;-77
2022/09/03 04:50:31;;;;;;;5.47;1.10;;;15.10;91.80;;;;;;5022916;28;20140;-76
2022/09/03 04:53:02;;;;;;;2.10;0.98;;;15.10;91.80;;;;;;5010798;28;20025;-78
2022/09/03 04:55:31;;;;;;;;;;;15.20;91.80;;;;;;5025546;28;20055;-77
2022/09/03 04:57:58;;;;;;;2.15;1.20;;;15.10;91.80;;;;;;5024968;28;19913;-77
2022/09/03 05:00:24;;;;;;;1.70;1.20;;;15.20;91.90;;;;;;5036036;28;20105;-77
2022/09/03 05:02:50;;;;;;;2.25;1.10;;;15.10;91.90;;;;;;5043122;28;20187;-76
2022/09/03 05:05:16;;;;;;;2.03;1.02;;;15.20;91.90;;;;;;5020543;28;20048;-76
2022/09/03 05:07:42;;;;;;;3.25;0.98;;;15.10;91.80;;;;;;5041370;28;20033;-77
2022/09/03 05:10:19;;;;;;;2.55;1.10;;;15.20;91.80;;;;;;5039001;28;20090;-77
2022/09/03 05:12:46;;;;;;;3.42;1.50;;;15.10;91.80;;;;;;5043112;28;20052;-77
2022/09/03 05:15:13;;;;;;;3.47;1.30;;;15.20;91.80;;;;;;5023341;28;20574;-77
2022/09/03 05:17:39;;;;;;;2.38;1.25;;;15.20;91.90;;;;;;5026216;28;20039;-77
2022/09/03 05:20:07;;;;;;;4.05;1.38;;;15.20;91.70;;;;;;5035719;28;20025;-76
2022/09/03 05:22:33;;;;;;;1.67;1.13;;;15.20;91.90;;;;;;5043902;28;20043;-77
2022/09/03 05:24:59;;;;;;;2.20;1.30;;;15.20;91.80;;;;;;5007838;28;20110;-77
2022/09/03 05:27:25;;;;;;;2.08;1.20;;;15.20;91.80;;;;;;5028249;28;20093;-77
2022/09/03 05:29:51;;;;;;;1.77;1.08;;;15.20;91.90;;;;;;5022713;28;20032;-77
2022/09/03 05:32:16;;;;;;;1.60;0.90;;;15.30;91.90;;;;;;5042681;28;20041;-76
2022/09/03 05:34:42;;;;;;;3.60;1.33;;;15.20;91.60;;;;;;5023296;28;20123;-78
2022/09/03 05:37:11;;;;;;;2.28;1.20;;;15.20;91.90;;;;;;5023128;28;20048;-77
2022/09/03 05:39:37;;;;;;;2.72;1.00;;;15.20;91.60;;;;;;5024868;28;20043;-77
2022/09/03 05:42:04;;;;;;;3.08;1.60;;;15.20;91.80;;;;;;5044690;28;20021;-77
2022/09/03 05:44:30;;;;;;;2.90;1.27;;;15.20;91.80;;;;;;5038252;28;20535;-77
2022/09/03 05:46:57;;;;;;;2.35;1.13;;;15.30;91.90;;;;;;5023062;28;20044;-77
2022/09/03 05:49:23;;;;;;;3.45;1.10;;;15.30;91.80;;;;;;5045689;28;20029;-77
2022/09/03 05:51:48;;;;;;;2.92;1.00;;;15.30;91.80;;;;;;5028047;28;20036;-78
2022/09/03 05:54:14;;;;;;;3.53;1.10;;;15.30;91.60;;;;;;5031401;28;20025;-77
2022/09/03 05:56:41;;;;;;;3.50;1.13;;;15.30;91.70;;;;;;5054821;28;20075;-76
2022/09/03 05:59:08;;;;;;;3.88;1.13;;;15.30;91.60;;;;;;5036120;28;20037;-78
2022/09/03 06:01:39;;;;;;;4.63;1.08;;;15.30;91.60;;;;;;5055935;28;20025;-77
2022/09/03 06:04:07;;;;;;;1.88;0.90;;;15.30;91.60;;;;;;5045474;28;20052;-77
2022/09/03 06:06:36;;;;;;;1.60;0.90;;;15.40;91.70;;;;;;5032954;28;20044;-77
2022/09/03 06:09:05;;;;;;;3.60;1.13;;;15.40;91.70;;;;;;5027243;28;20037;-77
2022/09/03 06:11:33;;;;;;;3.03;1.30;;;15.50;91.70;;;;;;5030656;28;20154;-77
2022/09/03 06:14:01;;;;;;;2.22;1.10;;;15.50;91.70;;;;;;5014297;28;20024;-77
2022/09/03 06:16:31;;;;;;;2.13;0.90;;;15.50;91.60;;;;;;5029699;28;20118;-77
2022/09/03 06:18:57;;;;;;;1.75;0.90;;;15.60;94.50;;;;;;5034035;28;20029;-76
2022/09/03 06:21:23;;;;;;;2.60;1.00;;;16.00;92.00;;;;;;5028878;28;20033;-77
2022/09/03 06:23:51;;;;;;;3.28;0.90;;;15.80;91.20;;;;;;5034671;28;20116;-77
2022/09/03 06:26:18;;;;;;;2.40;1.30;;;15.80;91.30;;;;;;5047487;28;20014;-77
2022/09/03 06:28:45;;;;;;;5.28;1.20;;;15.80;91.20;;;;;;5027290;28;20028;-77
2022/09/03 06:31:13;;;;;;;2.63;1.10;;;15.80;91.10;;;;;;5043913;28;20033;-77
2022/09/03 06:33:41;;;;;;;1.90;0.95;;;15.70;91.20;;;;;;5053981;28;20136;-76
2022/09/03 06:36:10;;;;;;;3.78;1.10;;;15.70;91.20;;;;;;5030948;28;20033;-77
2022/09/03 06:38:37;;;;;;;2.40;1.10;;;15.80;91.50;;;;;;5032519;28;20028;-79
2022/09/03 06:41:09;;;;;;;4.55;1.50;;;15.70;91.40;;;;;;5059127;28;20025;-78
2022/09/03 06:43:37;;;;;;;2.35;1.27;;;15.80;91.50;;;;;;5041176;28;20114;-78
2022/09/03 06:46:14;;;;;;;2.85;1.02;;;15.80;91.50;;;;;;5040070;28;20039;-78
2022/09/03 06:48:41;;;;;;;2.63;1.00;;;15.90;91.50;;;;;;5043717;28;20055;-79
2022/09/03 06:51:18;;;;;;;5.88;1.27;;;15.90;91.30;;;;;;5057842;28;20036;-78
2022/09/03 06:53:58;;;;;;;1.95;1.20;;;15.90;91.00;;;;;;5032723;28;20052;-77
2022/09/03 06:56:25;;;;;;;3.92;1.15;;;16.00;91.20;;;;;;5034641;28;20017;-77
2022/09/03 06:58:54;;;;;;;3.63;1.20;;;16.00;91.30;;;;;;5037462;28;20044;-78
2022/09/03 07:01:22;;;;;;;1.30;1.00;;;16.10;91.40;;;;;;5053650;28;20085;-78
2022/09/03 07:03:55;;;;;;;2.58;1.20;;;16.10;91.50;;;;;;5026657;28;20029;-77
2022/09/03 07:06:22;;;;;;;3.47;1.08;;;16.20;91.50;;;;;;5047314;28;20017;-78
2022/09/03 07:08:48;;;;;;;4.50;0.95;;;16.20;91.50;;;;;;5048738;28;20043;-78
2022/09/03 07:11:24;;;;;;;3.05;1.30;;;16.30;91.30;;;;;;5043026;28;20041;-78
2022/09/03 07:13:50;;;;;;;3.35;1.13;;;16.30;90.90;;;;;;5045471;28;20029;-78
2022/09/03 07:16:18;;;;;;;1.83;1.13;;;16.30;90.80;;;;;;5059926;28;20028;-78
2022/09/03 07:18:44;;;;;;;3.67;1.25;;;16.40;91.00;;;;;;5039737;28;20117;-77
2022/09/03 07:21:12;;;;;;;4.60;1.00;;;16.40;91.00;;;;;;5029608;28;20039;-78
2022/09/03 07:23:39;;;;;;;2.03;1.08;;;16.40;91.20;;;;;;5027267;28;20025;-78
2022/09/03 07:26:08;;;;;;;6.28;1.17;;;16.50;91.00;;;;;;5027751;28;20088;-77
2022/09/03 07:28:36;;;;;;;2.65;1.13;;;16.50;90.70;;;;;;5010631;28;20029;-77
2022/09/03 07:31:13;;;;;;;2.40;1.33;;;16.50;90.70;;;;;;5026873;28;20040;-78
2022/09/03 07:33:40;;;;;;;3.25;1.10;;;16.60;90.90;;;;;;5024918;28;20124;-76
2022/09/03 07:36:09;;;;;;;3.58;1.10;;;16.60;90.80;;;;;;5006713;28;20044;-77
2022/09/03 07:38:36;;;;;;;1.73;0.82;;;16.70;90.60;;;;;;5024611;28;20048;-77
2022/09/03 07:41:05;;;;;;;2.47;1.10;;;16.70;90.80;;;;;;5046395;28;20020;-77
2022/09/03 07:43:48;;;;;;;5.65;1.50;;;16.90;90.60;;;;;;5027598;28;20552;-77
2022/09/03 07:46:22;;;;;;;3.53;1.00;;;16.90;90.40;;;;;;5027542;28;20029;-77
2022/09/03 07:48:51;;;;;;;2.22;1.10;;;16.90;90.40;;;;;;5024822;28;20104;-76
2022/09/03 07:51:19;;;;;;;1.42;0.90;;;17.00;90.50;;;;;;5022269;28;20610;-76
2022/09/03 07:53:45;;;;;;;2.22;1.48;;;17.00;90.20;;;;;;5020588;28;20059;-78
2022/09/03 07:56:12;;;;;;;3.60;1.10;;;17.10;90.00;;;;;;5036444;28;20109;-76
2022/09/03 07:58:40;;;;;;;2.55;1.13;;;17.10;90.30;;;;;;5044675;28;20025;-77
2022/09/03 08:01:14;;;;;;;1.70;0.98;;;17.20;90.10;;;;;;5031138;28;20031;-77
2022/09/03 08:03:45;;;;;;;5.70;1.17;;;17.20;90.10;;;;;;5053995;28;20571;-78
2022/09/03 08:06:12;;;;;;;3.35;1.20;;;17.30;89.70;;;;;;5059087;28;20035;-78
2022/09/03 08:08:39;;;;;;;3.42;1.08;;;17.30;89.30;;;;;;5042787;28;20029;-79
2022/09/03 08:11:13;;;;;;;11.73;1.40;;;17.40;89.20;;;;;;5043227;28;20689;-78
2022/09/03 08:13:42;;;;;;;3.42;1.10;;;17.40;89.00;;;;;;5038866;28;20024;-78
2022/09/03 08:16:09;;;;;;;3.28;1.10;;;17.50;88.90;;;;;;5037172;28;20040;-78
2022/09/03 08:18:37;;;;;;;4.25;1.30;;;17.60;90.40;;;;;;5020835;28;20033;-79
2022/09/03 08:21:11;;;;;;;2.58;1.00;;;17.70;89.40;;;;;;5004706;28;20040;-79
2022/09/03 08:23:38;;;;;;;2.22;1.10;;;17.80;89.40;;;;;;5014443;28;20521;-75
2022/09/03 08:26:04;;;;;;;5.15;1.23;;;17.80;88.40;;;;;;5024434;28;20048;-76
2022/09/03 08:28:31;;;;;;;3.22;1.00;;;17.90;87.80;;;;;;5016173;28;20482;-75
2022/09/03 08:30:57;;;;;;;3.38;1.20;;;17.90;87.30;;;;;;5038571;28;20155;-76
2022/09/03 08:33:36;;;;;;;2.40;1.10;;;18.00;86.80;;;;;;5045406;28;20491;-78
2022/09/03 08:36:11;;;;;;;2.03;1.20;;;18.00;86.70;;;;;;5030118;28;20128;-76
2022/09/03 08:38:38;;;;;;;2.50;1.20;;;18.00;87.10;;;;;;5045726;28;20047;-75
2022/09/03 08:41:36;;;;;;;5.25;1.45;;;17.90;86.50;;;;;;5055349;28;20028;-75
2022/09/03 08:44:35;;;;;;;5.45;1.10;;;17.90;86.50;;;;;;5052357;28;20033;-75
2022/09/03 08:47:20;;;;;;;4.28;1.33;;;17.80;86.30;;;;;;5025357;28;20102;-76
2022/09/03 08:49:58;;;;;;;4.53;1.40;;;17.80;87.10;;;;;;5011680;28;20031;-75
2022/09/03 08:52:31;;;;;;;3.00;1.30;;;17.90;87.40;;;;;;5024620;28;20028;-74
2022/09/03 08:55:45;;;;;;;2.50;1.00;;;18.10;85.70;;;;;;5009492;28;20032;-75
2022/09/03 08:58:13;;;;;;;5.72;1.00;;;18.20;86.30;;;;;;4961705;28;20114;-75
2022/09/03 09:01:02;;;;;;;4.55;1.20;;;18.30;86.50;;;;;;5047900;28;20036;-75
2022/09/03 09:03:42;;;;;;;1.02;0.82;;;18.40;86.00;;;;;;5021502;28;20032;-75
2022/09/03 09:06:30;;;;;;;4.25;1.38;;;18.50;85.70;;;;;;5040227;28;20048;-77
2022/09/03 09:09:15;;;;;;;2.05;1.10;;;18.60;84.80;;;;;;5017942;28;20068;-76
2022/09/03 09:11:58;;;;;;;1.70;1.10;;;18.70;84.50;;;;;;5023280;28;20107;-75
2022/09/03 09:15:02;;;;;;;1.77;1.23;;;18.70;84.40;;;;;;5022202;28;20398;-74
2022/09/03 09:17:52;;;;;;;7.82;1.20;;;18.80;83.40;;;;;;5040261;28;20405;-75
2022/09/03 09:20:45;;;;;;;2.47;1.17;;;18.90;84.00;;;;;;5046638;28;20087;-75
2022/09/03 09:23:46;;;;;;;6.85;1.05;;;19.00;82.30;;;;;;5025706;28;20144;-75
2022/09/03 09:26:15;;;;;;;5.22;1.00;;;19.10;81.50;;;;;;5025386;28;20021;-75
2022/09/03 09:28:42;;;;;;;2.45;1.05;;;19.10;82.00;;;;;;5046442;28;20392;-75
2022/09/03 09:31:14;;;;;;;3.28;0.90;;;19.20;81.50;;;;;;5022129;28;20089;-76
2022/09/03 09:33:39;;;;;;;7.97;1.20;;;19.20;80.60;;;;;;5004855;28;20106;-72
2022/09/03 09:36:14;;;;;;;3.58;1.00;;;19.30;78.70;;;;;;5042851;28;20401;-75
2022/09/03 09:38:40;;;;;;;4.07;0.82;;;19.40;78.50;;;;;;5020772;28;20155;-75
2022/09/03 09:41:20;;;;;;;1.92;0.90;;;19.50;79.60;;;;;;5020762;28;20052;-76
2022/09/03 09:43:47;;;;;;;3.07;1.10;;;19.60;79.00;;;;;;5038139;28;20028;-75
2022/09/03 09:46:21;;;;;;;2.95;1.00;;;19.60;78.70;;;;;;5024970;28;20029;-74
2022/09/03 09:48:53;;;;;;;4.95;1.17;;;19.70;77.10;;;;;;5044279;28;20752;-75
2022/09/03 09:51:22;;;;;;;4.20;1.10;;;19.80;76.80;;;;;;5043448;28;20025;-74
2022/09/03 09:54:00;;;;;;;3.60;1.10;;;19.90;76.20;;;;;;5026261;28;20036;-73
2022/09/03 09:56:27;;;;;;;1.70;1.10;;;20.10;75.00;;;;;;5030156;28;20032;-74
2022/09/03 09:59:07;;;;;;;3.80;1.20;;;20.20;75.10;;;;;;5035128;28;20049;-75
2022/09/03 10:01:37;;;;;;;2.03;1.00;;;20.30;75.60;;;;;;5045962;28;20074;-74
2022/09/03 10:04:23;;;;;;;4.05;0.98;;;20.40;72.30;;;;;;5009125;28;20029;-74
2022/09/03 10:07:18;;;;;;;1.40;0.60;;;20.40;72.00;;;;;;5043483;28;20060;-75
2022/09/03 10:09:45;;;;;;;2.67;1.23;;;20.40;69.90;;;;;;5038667;28;20040;-75
2022/09/03 10:12:22;;;;;;;1.50;0.68;;;20.40;68.90;;;;;;5025886;28;20037;-75
2022/09/03 10:14:59;;;;;;;2.83;0.90;;;20.40;69.70;;;;;;5026886;28;20142;-74
2022/09/03 10:17:48;;;;;;;3.05;0.90;;;20.50;70.30;;;;;;5008723;28;20416;-73
2022/09/03 10:20:26;;;;;;;2.20;1.02;;;20.50;70.50;;;;;;5043988;28;20581;-75
2022/09/03 10:23:17;;;;;;;3.00;1.30;;;20.50;70.60;;;;;;5043596;28;20036;-75
2022/09/03 10:25:49;;;;;;;2.97;1.27;;;20.50;74.80;;;;;;5050346;28;20067;-74
2022/09/03 10:28:15;;;;;;;2.45;1.15;;;20.50;69.40;;;;;;5024656;28;20132;-74
2022/09/03 10:31:18;;;;;;;11.18;1.38;;;20.40;69.90;;;;;;5018861;28;20373;-70
2022/09/03 10:33:58;;;;;;;5.85;1.02;;;20.50;70.50;;;;;;5030738;28;20025;-69
2022/09/03 10:36:38;;;;;;;3.70;1.05;;;20.50;70.10;;;;;;5047068;28;20503;-71
2022/09/03 10:39:19;;;;;;;4.05;1.30;;;20.60;68.50;;;;;;5047853;28;20646;-71
2022/09/03 10:42:12;;;;;;;9.10;1.13;;;20.60;68.60;;;;;;5038024;28;20068;-75
2022/09/03 10:44:45;;;;;;;4.30;1.17;;;20.60;69.00;;;;;;5031115;28;20523;-74
2022/09/03 10:47:23;;;;;;;5.80;1.25;;;20.60;68.70;;;;;;5047854;28;20345;-74
2022/09/03 10:50:11;;;;;;;9.00;1.17;;;20.70;67.00;;;;;;5029661;28;20021;-73
2022/09/03 10:52:46;;;;;;;2.55;0.85;;;20.60;66.30;;;;;;5046166;28;20532;-74
2022/09/03 10:55:27;;;;;;;4.68;1.00;;;20.60;64.80;;;;;;5048785;28;20029;-74
2022/09/03 10:58:37;;;;;;;5.35;1.38;;;20.60;66.20;;;;;;5011911;28;20028;-74
2022/09/03 11:01:36;;;;;;;5.45;1.15;;;20.60;66.20;;;;;;5043747;28;20037;-75
2022/09/03 11:04:40;;;;;;;5.15;1.10;;;20.60;66.80;;;;;;5002743;28;20033;-74
2022/09/03 11:07:12;;;;;;;3.42;0.93;;;20.70;68.00;;;;;;5013781;28;20060;-75
2022/09/03 11:09:47;;;;;;;4.13;1.00;;;20.70;67.40;;;;;;5049152;28;20116;-73
2022/09/03 11:12:21;;;;;;;1.30;1.00;;;20.80;67.90;;;;;;5046063;28;20025;-75
2022/09/03 11:14:55;;;;;;;1.48;0.90;;;20.90;67.40;;;;;;5029926;28;20028;-75
2022/09/03 11:17:28;;;;;;;3.38;1.30;;;21.00;66.50;;;;;;5047839;28;20036;-75
2022/09/03 11:20:06;;;;;;;2.53;1.17;;;21.10;65.40;;;;;;5031626;28;20033;-76
2022/09/03 11:22:33;;;;;;;3.90;0.75;;;21.10;64.80;;;;;;5029317;28;20025;-76
2022/09/03 11:25:01;;;;;;;6.07;1.65;;;21.10;64.20;;;;;;5029437;28;20024;-74
2022/09/03 11:27:53;;;;;;;2.15;0.80;;;21.10;64.10;;;;;;5046085;28;20025;-75
2022/09/03 11:30:39;;;;;;;3.92;1.20;;;21.20;65.50;;;;;;5048845;28;20462;-74
2022/09/03 11:33:10;;;;;;;3.20;1.40;;;21.30;64.40;;;;;;5047664;28;20044;-74
2022/09/03 11:35:36;;;;;;;2.47;1.10;;;21.40;62.60;;;;;;5047359;28;20029;-73
2022/09/03 11:38:07;;;;;;;4.38;1.00;;;21.40;61.90;;;;;;5028764;28;20045;-73
2022/09/03 11:40:39;;;;;;;1.63;1.00;;;21.40;60.70;;;;;;5047626;28;20108;-73
2022/09/03 11:43:25;;;;;;;2.70;1.38;;;21.40;61.70;;;;;;5031570;28;20028;-72
2022/09/03 11:46:21;;;;;;;2.22;1.20;;;21.40;61.50;;;;;;5029335;28;20036;-72
2022/09/03 11:48:49;;;;;;;2.85;1.23;;;21.50;61.70;;;;;;5039733;28;20711;-69
2022/09/03 11:51:34;;;;;;;2.55;1.33;;;21.50;60.80;;;;;;5026906;28;20040;-70
2022/09/03 11:54:11;;;;;;;6.43;1.45;;;21.50;60.60;;;;;;5029114;28;20025;-71
2022/09/03 11:56:38;;;;;;;3.55;1.20;;;21.60;61.30;;;;;;5029668;28;20017;-70
2022/09/03 11:59:12;;;;;;;4.00;1.42;;;21.80;61.60;;;;;;5029736;28;20441;-70
2022/09/03 12:01:57;;;;;;;4.40;1.15;;;22.10;59.90;;;;;;5028006;28;20024;-74
2022/09/03 12:04:45;;;;;;;3.20;1.20;;;22.40;59.00;;;;;;5052183;28;20021;-72
2022/09/03 12:07:40;;;;;;;3.35;1.08;;;22.50;58.00;;;;;;5053392;28;20047;-75
2022/09/03 12:10:40;;;;;;;2.92;1.20;;;22.80;57.50;;;;;;5018392;28;20188;-75
2022/09/03 12:13:30;;;;;;;3.30;1.05;;;23.30;56.50;;;;;;5039317;28;20041;-73
2022/09/03 12:16:19;;;;;;;4.60;1.20;;;23.60;56.40;;;;;;5029416;28;20135;-73
2022/09/03 12:18:48;;;;;;;2.13;1.17;;;24.00;55.10;;;;;;5025583;28;20087;-73
2022/09/03 12:21:16;;;;;;;2.95;1.13;;;24.60;53.70;;;;;;5011674;28;20028;-74
2022/09/03 12:23:45;;;;;;;7.15;1.30;;;25.00;53.10;;;;;;5030018;28;20025;-73
2022/09/03 12:26:13;;;;;;;3.03;0.90;;;25.30;52.00;;;;;;5047381;28;20397;-70
2022/09/03 12:28:41;;;;;;;2.40;1.15;;;25.20;51.60;;;;;;5045337;28;20029;-70
2022/09/03 12:31:24;;;;;;;2.65;1.40;;;25.10;52.00;;;;;;5046284;28;20477;-72
2022/09/03 12:34:00;;;;;;;2.83;1.10;;;25.50;50.90;;;;;;5043137;28;20029;-73
2022/09/03 12:36:37;;;;;;;1.52;1.00;;;25.90;50.90;;;;;;5028728;28;20060;-75
2022/09/03 12:39:09;;;;;;;2.80;1.00;;;26.20;49.70;;;;;;5029485;28;20127;-74
2022/09/03 12:41:36;;;;;;;2.10;1.02;;;26.60;49.20;;;;;;5045448;28;20017;-75
2022/09/03 12:44:02;;;;;;;2.78;1.45;;;27.00;49.70;;;;;;5027533;28;20684;-75
2022/09/03 12:46:31;;;;;;;3.22;1.70;;;27.80;48.20;;;;;;5020676;28;20106;-76
2022/09/03 12:49:06;;;;;;;5.30;1.33;;;28.50;46.30;;;;;;5029344;28;20075;-75
2022/09/03 12:51:40;;;;;;;3.35;0.90;;;29.00;45.20;;;;;;5044863;28;20570;-75
2022/09/03 12:54:14;;;;;;;3.60;0.90;;;29.30;43.40;;;;;;5044454;28;20092;-75
2022/09/03 12:56:43;;;;;;;2.63;1.10;;;29.50;43.90;;;;;;5040355;28;20064;-70
2022/09/03 12:59:14;;;;;;;3.58;0.82;;;29.90;43.10;;;;;;5045824;28;20220;-72
2022/09/03 13:01:50;;;;;;;4.30;1.15;;;29.30;42.10;;;;;;5046127;28;20832;-71
2022/09/03 13:04:20;;;;;;;2.20;1.02;;;28.90;41.90;;;;;;5045535;28;20028;-73
2022/09/03 13:07:02;;;;;;;4.00;1.00;;;27.80;42.70;;;;;;5025406;28;20025;-72
2022/09/03 13:09:32;;;;;;;3.83;1.15;;;26.90;43.90;;;;;;5027458;28;20110;-73
2022/09/03 13:12:04;;;;;;;1.48;0.88;;;25.80;45.50;;;;;;5028369;28;20027;-74
2022/09/03 13:14:46;;;;;;;2.17;0.95;;;25.20;46.70;;;;;;5027349;28;20036;-73
2022/09/03 13:17:31;;;;;;;3.60;1.52;;;24.70;47.30;;;;;;5009178;28;20036;-71
2022/09/03 13:20:03;;;;;;;6.78;1.83;;;24.20;48.20;;;;;;5045215;28;20055;-73
2022/09/03 13:22:44;;;;;;;4.57;1.23;;;24.00;48.10;;;;;;5045184;28;20025;-72
2022/09/03 13:25:19;;;;;;;4.20;1.05;;;23.60;48.20;;;;;;5042120;28;20430;-68